Time;durP1;ratioP1;P1;durP2;ratioP2;P2;SDS_P1;SDS_P2;PMS_P1;PMS_P2;Temp;Humidity;BMP_temperature;BMP_pressure;BME280_temperature;BME280_humidity;BME280_pressure;Samples;Min_cycle;Max_cycle;Signal;HPM_P1;HPM_P2
2022/08/01 00:00:32;;;;;;;10.38;5.07;;;19.20;99.90;;;;;;5012731;28;20052;-84
2022/08/01 00:02:58;;;;;;;9.77;6.80;;;19.20;99.90;;;;;;5012065;28;20038;-84
2022/08/01 00:05:23;;;;;;;9.32;6.28;;;19.20;99.90;;;;;;5012220;28;20032;-83
2022/08/01 00:07:49;;;;;;;10.45;7.50;;;19.20;99.90;;;;;;5013553;28;20402;-84
2022/08/01 00:10:16;;;;;;;9.68;7.60;;;19.10;99.90;;;;;;4997183;28;20022;-85
2022/08/01 00:12:43;;;;;;;10.75;8.82;;;19.10;99.90;;;;;;5006295;28;20041;-84
2022/08/01 00:15:11;;;;;;;12.15;8.63;;;19.10;99.90;;;;;;5015570;28;20032;-85
2022/08/01 00:17:36;;;;;;;10.68;8.95;;;19.00;99.90;;;;;;5010191;28;20030;-84
2022/08/01 00:20:07;;;;;;;11.48;9.10;;;19.00;99.90;;;;;;5013169;28;20041;-83
2022/08/01 00:22:33;;;;;;;14.32;9.60;;;18.90;99.90;;;;;;5013846;28;20052;-85
2022/08/01 00:24:59;;;;;;;13.40;9.63;;;18.90;99.90;;;;;;4996797;28;20046;-83
2022/08/01 00:27:25;;;;;;;11.20;8.57;;;18.90;99.90;;;;;;5014680;28;20041;-85
2022/08/01 00:29:51;;;;;;;10.63;7.82;;;18.90;99.90;;;;;;5016602;28;20477;-84
2022/08/01 00:32:17;;;;;;;9.48;7.97;;;18.90;99.90;;;;;;4993162;28;20033;-84
2022/08/01 00:34:42;;;;;;;12.32;8.65;;;18.90;99.90;;;;;;4999185;28;20064;-84
2022/08/01 00:37:08;;;;;;;12.80;9.45;;;18.90;99.90;;;;;;5015684;28;20029;-84
2022/08/01 00:39:33;;;;;;;11.50;9.20;;;18.80;99.90;;;;;;4999685;28;20036;-84
2022/08/01 00:42:05;;;;;;;10.00;7.57;;;18.90;99.90;;;;;;5015770;28;20470;-83
2022/08/01 00:44:30;;;;;;;12.45;9.43;;;18.80;99.90;;;;;;5016703;28;20025;-84
2022/08/01 00:46:56;;;;;;;12.50;8.52;;;18.80;99.90;;;;;;4998524;28;20504;-83
2022/08/01 00:49:22;;;;;;;10.65;8.60;;;18.80;99.90;;;;;;5014667;28;20022;-83
2022/08/01 00:51:48;;;;;;;9.38;7.45;;;18.80;99.90;;;;;;5016667;28;20057;-84
2022/08/01 00:54:14;;;;;;;10.40;7.63;;;18.80;99.90;;;;;;5016448;28;20052;-83
2022/08/01 00:56:41;;;;;;;9.40;6.72;;;18.80;99.90;;;;;;5016191;28;22031;-85
2022/08/01 00:59:08;;;;;;;9.27;7.72;;;18.80;99.90;;;;;;5005703;28;20084;-82
2022/08/01 01:01:34;;;;;;;8.25;6.30;;;18.70;99.90;;;;;;4986211;28;20030;-86
2022/08/01 01:04:02;;;;;;;10.80;7.65;;;18.70;99.90;;;;;;5001883;28;20033;-84
2022/08/01 01:06:48;;;;;;;8.13;6.47;;;18.70;99.90;;;;;;5003580;28;20080;-91
2022/08/01 01:09:42;;;;;;;11.02;7.78;;;18.70;99.90;;;;;;5012119;28;20042;-83
2022/08/01 01:12:42;;;;;;;9.98;6.97;;;18.70;99.90;;;;;;4991719;28;20049;-83
2022/08/01 01:15:13;;;;;;;8.07;6.32;;;18.70;99.90;;;;;;4992066;28;20385;-84
2022/08/01 01:17:47;;;;;;;7.95;6.22;;;18.70;99.90;;;;;;4997549;28;20498;-84
2022/08/01 01:20:14;;;;;;;6.90;5.70;;;18.70;99.90;;;;;;5010945;28;20017;-87
2022/08/01 01:22:52;;;;;;;9.18;5.90;;;18.70;99.90;;;;;;4996923;28;20117;-83
2022/08/01 01:25:32;;;;;;;11.18;6.82;;;18.60;99.90;;;;;;4972579;28;20026;-84
2022/08/01 01:28:16;;;;;;;10.98;6.32;;;18.60;99.90;;;;;;4989454;28;20426;-85
2022/08/01 01:30:46;;;;;;;11.38;6.72;;;18.60;99.90;;;;;;5010940;28;20022;-85
2022/08/01 01:33:13;;;;;;;7.60;5.95;;;18.70;99.90;;;;;;5010256;28;20471;-83
2022/08/01 01:35:46;;;;;;;8.40;5.68;;;18.60;99.90;;;;;;4988910;28;20072;-92
2022/08/01 01:38:22;;;;;;;6.68;5.55;;;18.60;99.90;;;;;;4988500;28;20030;-83
2022/08/01 01:40:50;;;;;;;8.73;5.55;;;18.70;99.90;;;;;;5001072;28;20034;-84
2022/08/01 01:43:17;;;;;;;9.00;5.70;;;18.60;99.90;;;;;;5010689;28;20048;-83
2022/08/01 01:45:44;;;;;;;8.30;6.10;;;18.60;99.90;;;;;;4984983;28;20030;-83
2022/08/01 01:48:14;;;;;;;8.93;7.03;;;18.60;99.90;;;;;;5010090;28;20025;-85
2022/08/01 01:50:41;;;;;;;;;;;18.60;99.90;;;;;;4973294;28;20072;-85
2022/08/01 01:53:10;;;;;;;9.90;8.02;;;18.60;99.90;;;;;;5004971;28;19920;-83
2022/08/01 01:55:38;;;;;;;8.50;6.37;;;18.60;99.90;;;;;;5013741;28;20088;-86
2022/08/01 01:58:06;;;;;;;10.63;8.57;;;18.70;99.90;;;;;;4988944;28;20026;-83
2022/08/01 02:00:34;;;;;;;11.13;9.32;;;18.70;99.90;;;;;;5000076;28;20080;-83
2022/08/01 02:03:02;;;;;;;8.57;6.85;;;18.70;99.90;;;;;;5009835;28;20040;-84
2022/08/01 02:05:28;;;;;;;11.52;9.25;;;18.70;99.90;;;;;;5010065;28;20041;-84
2022/08/01 02:07:55;;;;;;;12.73;10.35;;;18.60;99.90;;;;;;5010491;28;20045;-85
2022/08/01 02:10:22;;;;;;;11.82;9.43;;;18.70;99.90;;;;;;5011271;28;20048;-93
2022/08/01 02:12:49;;;;;;;12.07;9.68;;;18.60;99.90;;;;;;5011882;28;20037;-84
2022/08/01 02:15:17;;;;;;;13.93;10.35;;;18.60;99.90;;;;;;4990659;28;20368;-84
2022/08/01 02:17:48;;;;;;;13.38;10.50;;;18.60;99.90;;;;;;5011069;28;20040;-81
2022/08/01 02:20:14;;;;;;;14.18;9.70;;;18.60;99.90;;;;;;4987673;28;20382;-82
2022/08/01 02:23:01;;;;;;;14.68;10.32;;;18.60;99.90;;;;;;5014143;28;20066;-84
2022/08/01 02:25:45;;;;;;;13.85;10.05;;;18.60;99.90;;;;;;5011455;28;20026;-85
2022/08/01 02:28:19;;;;;;;13.90;10.02;;;18.60;99.90;;;;;;5010374;28;20145;-83
2022/08/01 02:30:48;;;;;;;12.95;9.25;;;18.60;99.90;;;;;;5011314;28;20029;-83
2022/08/01 02:33:27;;;;;;;11.20;7.93;;;18.60;99.90;;;;;;5008869;28;20038;-83
2022/08/01 02:35:57;;;;;;;12.93;8.75;;;18.60;99.90;;;;;;4998434;28;20033;-83
2022/08/01 02:38:27;;;;;;;10.98;7.47;;;18.50;99.90;;;;;;4975180;28;20359;-88
2022/08/01 02:40:57;;;;;;;12.02;7.78;;;18.50;99.90;;;;;;4998589;28;20109;-89
2022/08/01 02:43:26;;;;;;;11.10;7.78;;;18.50;99.90;;;;;;5011157;28;20041;-83
2022/08/01 02:46:04;;;;;;;11.75;9.05;;;18.50;99.90;;;;;;4989459;28;20172;-86
2022/08/01 02:48:33;;;;;;;12.90;8.13;;;18.50;99.90;;;;;;5009334;28;20429;-83
2022/08/01 02:51:01;;;;;;;10.82;7.65;;;18.40;99.90;;;;;;5001062;28;20113;-83
2022/08/01 02:53:30;;;;;;;11.43;7.07;;;18.40;99.90;;;;;;4989921;28;20104;-84
2022/08/01 02:55:57;;;;;;;10.30;7.18;;;18.40;99.90;;;;;;5010041;28;20520;-83
2022/08/01 02:58:24;;;;;;;10.10;7.28;;;18.40;99.90;;;;;;4988779;28;20026;-84
2022/08/01 03:00:51;;;;;;;7.90;5.57;;;18.40;99.90;;;;;;4973502;28;20117;-82
2022/08/01 03:03:17;;;;;;;10.10;7.25;;;18.40;99.90;;;;;;4977056;28;20447;-85
2022/08/01 03:05:44;;;;;;;10.23;6.32;;;18.40;99.90;;;;;;5010800;28;20051;-92
2022/08/01 03:08:13;;;;;;;11.32;7.85;;;18.40;99.90;;;;;;5011332;28;20140;-82
2022/08/01 03:10:41;;;;;;;12.87;7.77;;;18.30;99.90;;;;;;4989852;28;20061;-84
2022/08/01 03:13:08;;;;;;;10.35;6.55;;;18.30;99.90;;;;;;5014716;28;20034;-83
2022/08/01 03:15:37;;;;;;;11.00;7.22;;;18.30;99.90;;;;;;4987878;28;20069;-84
2022/08/01 03:18:06;;;;;;;9.77;6.10;;;18.20;99.90;;;;;;5011291;28;20030;-84
2022/08/01 03:20:33;;;;;;;9.52;6.53;;;18.20;99.90;;;;;;4995685;28;20034;-85
2022/08/01 03:23:05;;;;;;;8.10;4.90;;;18.20;99.90;;;;;;5012835;28;20029;-83
2022/08/01 03:25:32;;;;;;;9.05;5.30;;;18.20;99.90;;;;;;5004197;28;20478;-84
2022/08/01 03:28:03;;;;;;;9.00;6.05;;;18.20;99.90;;;;;;5001857;28;20095;-86
2022/08/01 03:30:30;;;;;;;7.93;5.00;;;18.10;99.90;;;;;;4988930;28;20313;-83
2022/08/01 03:32:56;;;;;;;8.05;5.18;;;18.10;99.90;;;;;;4996589;28;20033;-87
2022/08/01 03:35:25;;;;;;;8.57;4.03;;;18.10;99.90;;;;;;4983933;28;20030;-85
2022/08/01 03:37:54;;;;;;;6.25;3.72;;;18.10;99.90;;;;;;5014342;28;20025;-85
2022/08/01 03:40:21;;;;;;;5.75;3.42;;;18.10;99.90;;;;;;4995489;28;20030;-83
2022/08/01 03:42:59;;;;;;;5.50;3.55;;;18.10;99.90;;;;;;5003624;28;20032;-84
2022/08/01 03:45:36;;;;;;;4.40;2.47;;;18.10;99.90;;;;;;4996250;28;20462;-84
2022/08/01 03:48:08;;;;;;;3.55;2.33;;;18.10;99.90;;;;;;4997141;28;20088;-89
2022/08/01 03:50:37;;;;;;;5.03;3.13;;;18.10;99.90;;;;;;5000273;28;20036;-86
2022/08/01 03:53:05;;;;;;;4.30;2.63;;;18.10;99.90;;;;;;4998070;28;20030;-85
2022/08/01 03:55:33;;;;;;;5.00;3.35;;;18.10;99.90;;;;;;5013755;28;20040;-84
2022/08/01 03:58:01;;;;;;;3.35;2.30;;;18.10;99.90;;;;;;5000090;28;20033;-84
2022/08/01 04:00:27;;;;;;;4.22;2.30;;;18.10;99.90;;;;;;4990570;28;20387;-90
2022/08/01 04:02:53;;;;;;;4.63;3.17;;;18.10;99.90;;;;;;5001528;28;20033;-86
2022/08/01 04:05:19;;;;;;;4.25;2.70;;;18.10;99.90;;;;;;5019858;28;20026;-84
2022/08/01 04:07:55;;;;;;;4.45;2.20;;;18.00;99.90;;;;;;5000818;28;20054;-84
2022/08/01 04:10:24;;;;;;;2.33;1.35;;;18.10;99.90;;;;;;5011849;28;20021;-84
2022/08/01 04:12:50;;;;;;;2.50;1.38;;;18.10;99.90;;;;;;5011464;28;20544;-86
2022/08/01 04:15:16;;;;;;;2.72;1.50;;;18.00;99.90;;;;;;5011896;28;20053;-86
2022/08/01 04:17:42;;;;;;;3.50;1.17;;;18.00;99.90;;;;;;5010698;28;20088;-86
2022/08/01 04:20:08;;;;;;;3.83;1.20;;;18.10;99.90;;;;;;5011752;28;20022;-85
2022/08/01 04:22:35;;;;;;;3.10;1.30;;;18.00;99.90;;;;;;4994102;28;20550;-84
2022/08/01 04:25:07;;;;;;;2.65;1.00;;;18.00;99.90;;;;;;4977255;28;20026;-86
2022/08/01 04:27:39;;;;;;;2.00;0.95;;;18.00;99.90;;;;;;5006496;28;20080;-84
2022/08/01 04:30:06;;;;;;;2.42;0.88;;;18.10;99.90;;;;;;5009402;28;20549;-88
2022/08/01 04:32:35;;;;;;;1.92;0.88;;;18.10;99.90;;;;;;5011673;28;20030;-84
2022/08/01 04:35:06;;;;;;;1.67;0.68;;;18.10;99.90;;;;;;4990561;28;20029;-84
2022/08/01 04:37:33;;;;;;;1.95;0.60;;;18.10;99.90;;;;;;5011038;28;20113;-84
2022/08/01 04:40:00;;;;;;;1.63;0.77;;;18.10;99.90;;;;;;5010207;28;20029;-85
2022/08/01 04:42:27;;;;;;;2.25;0.80;;;18.10;99.90;;;;;;5011256;28;20091;-84
2022/08/01 04:44:53;;;;;;;1.17;0.65;;;18.10;99.90;;;;;;5009107;28;20478;-84
2022/08/01 04:47:20;;;;;;;1.42;0.60;;;18.10;99.90;;;;;;4988778;28;20390;-83
2022/08/01 04:49:46;;;;;;;1.70;0.60;;;18.10;99.90;;;;;;5008050;28;20045;-83
2022/08/01 04:52:12;;;;;;;2.42;0.70;;;18.10;99.90;;;;;;5010128;28;20375;-83
2022/08/01 04:54:38;;;;;;;1.38;0.50;;;18.10;99.90;;;;;;5010346;28;20034;-82
2022/08/01 04:57:06;;;;;;;1.35;0.50;;;18.20;99.90;;;;;;5009758;28;20029;-83
2022/08/01 04:59:40;;;;;;;1.33;0.50;;;18.20;99.90;;;;;;4997322;28;20033;-84
2022/08/01 05:02:28;;;;;;;1.00;0.40;;;18.20;99.90;;;;;;5006359;28;20117;-84
2022/08/01 05:04:55;;;;;;;1.92;0.40;;;18.30;99.90;;;;;;4987606;28;20049;-86
2022/08/01 05:07:21;;;;;;;2.17;0.73;;;18.30;99.90;;;;;;5000625;28;20049;-84
2022/08/01 05:09:46;;;;;;;1.92;0.82;;;18.30;99.90;;;;;;4996926;28;20037;-84
2022/08/01 05:12:12;;;;;;;2.00;0.70;;;18.30;99.90;;;;;;5003379;28;20022;-84
2022/08/01 05:14:39;;;;;;;1.40;0.70;;;18.40;99.90;;;;;;4993259;28;20489;-85
2022/08/01 05:17:06;;;;;;;1.48;0.60;;;18.40;99.90;;;;;;5000708;28;20037;-87
2022/08/01 05:19:36;;;;;;;1.55;0.52;;;18.40;99.90;;;;;;4986978;28;20063;-86
2022/08/01 05:22:05;;;;;;;3.28;1.75;;;18.40;99.90;;;;;;4995168;28;20030;-85
2022/08/01 05:24:31;;;;;;;3.45;2.00;;;18.40;99.90;;;;;;4975718;28;20441;-84
2022/08/01 05:26:58;;;;;;;2.33;1.33;;;18.40;99.90;;;;;;5006108;28;20050;-87
2022/08/01 05:29:24;;;;;;;3.63;1.50;;;18.40;99.90;;;;;;4999488;28;20029;-85
2022/08/01 05:31:51;;;;;;;2.22;1.23;;;18.40;99.90;;;;;;4972508;28;20029;-84
2022/08/01 05:34:17;;;;;;;2.00;1.30;;;18.40;99.90;;;;;;4988424;28;20048;-84
2022/08/01 05:36:43;;;;;;;3.00;2.10;;;18.50;99.90;;;;;;5010049;28;20482;-83
2022/08/01 05:39:09;;;;;;;3.88;2.83;;;18.50;99.90;;;;;;4998177;28;20551;-84
2022/08/01 05:41:36;;;;;;;3.88;2.15;;;18.60;99.90;;;;;;5009980;28;20042;-84
2022/08/01 05:44:03;;;;;;;5.68;3.80;;;18.60;99.90;;;;;;4998371;28;20033;-87
2022/08/01 05:46:30;;;;;;;2.95;1.73;;;18.50;99.90;;;;;;5009919;28;20046;-85
2022/08/01 05:48:59;;;;;;;3.90;2.53;;;18.60;99.90;;;;;;4992791;28;20033;-85
2022/08/01 05:51:25;;;;;;;2.88;1.90;;;18.60;99.90;;;;;;4988398;28;20048;-86
2022/08/01 05:53:52;;;;;;;2.88;1.65;;;18.60;99.90;;;;;;5009175;28;20036;-84
2022/08/01 05:56:18;;;;;;;3.28;1.80;;;18.70;99.90;;;;;;4997300;28;20470;-83
2022/08/01 05:58:44;;;;;;;3.13;2.20;;;18.70;99.90;;;;;;4997401;28;20468;-83
2022/08/01 06:01:10;;;;;;;3.67;1.30;;;18.80;99.90;;;;;;4980620;28;20026;-85
2022/08/01 06:03:36;;;;;;;3.85;1.77;;;19.00;99.90;;;;;;4996653;28;20482;-86
2022/08/01 06:06:02;;;;;;;2.53;1.10;;;18.90;99.90;;;;;;5008776;28;20045;-82
2022/08/01 06:08:28;;;;;;;3.17;1.48;;;19.10;99.90;;;;;;5003925;28;20062;-84
2022/08/01 06:10:53;;;;;;;2.80;1.20;;;19.10;99.90;;;;;;4984941;28;20026;-86
2022/08/01 06:13:19;;;;;;;2.60;1.83;;;19.10;99.90;;;;;;4978047;28;20036;-85
2022/08/01 06:15:45;;;;;;;3.20;1.60;;;19.10;99.90;;;;;;5009217;28;20466;-83
2022/08/01 06:18:11;;;;;;;3.38;1.40;;;19.20;99.90;;;;;;5003689;28;20124;-84
2022/08/01 06:20:37;;;;;;;4.13;1.55;;;19.00;99.90;;;;;;5008934;28;20466;-83
2022/08/01 06:23:03;;;;;;;2.30;1.17;;;18.90;99.90;;;;;;4985871;28;20037;-85
2022/08/01 06:25:29;;;;;;;2.33;1.23;;;18.90;99.90;;;;;;5007289;28;20029;-83
2022/08/01 06:27:55;;;;;;;3.83;1.33;;;18.80;99.90;;;;;;4974449;28;20042;-84
2022/08/01 06:30:21;;;;;;;3.05;1.90;;;18.80;99.90;;;;;;5009171;28;20109;-84
2022/08/01 06:32:47;;;;;;;3.40;1.83;;;18.70;99.90;;;;;;5008888;28;20117;-83
2022/08/01 06:35:13;;;;;;;2.67;1.20;;;18.70;99.90;;;;;;5009043;28;20061;-83
2022/08/01 06:37:39;;;;;;;1.33;0.70;;;18.50;99.90;;;;;;4997025;28;20040;-83
2022/08/01 06:40:07;;;;;;;1.23;0.50;;;18.40;99.90;;;;;;5009317;28;20382;-83
2022/08/01 06:42:36;;;;;;;0.98;0.40;;;18.50;99.90;;;;;;5008692;28;20087;-83
2022/08/01 06:45:09;;;;;;;1.42;0.30;;;18.60;99.90;;;;;;5007690;28;20026;-83
2022/08/01 06:47:35;;;;;;;1.08;0.20;;;18.50;99.90;;;;;;4988108;28;20038;-83
2022/08/01 06:50:02;;;;;;;0.75;0.20;;;18.60;99.90;;;;;;5008973;28;20209;-83
2022/08/01 06:52:28;;;;;;;0.75;0.20;;;18.80;99.90;;;;;;5009279;28;20374;-83
2022/08/01 06:54:53;;;;;;;0.50;0.20;;;18.90;99.90;;;;;;5008771;28;20026;-83
2022/08/01 06:57:19;;;;;;;0.73;0.20;;;18.90;99.90;;;;;;4988573;28;20034;-84
2022/08/01 06:59:45;;;;;;;1.58;0.20;;;18.80;99.90;;;;;;5008500;28;20037;-83
2022/08/01 07:02:10;;;;;;;1.10;0.10;;;18.80;99.90;;;;;;4988630;28;20030;-84
2022/08/01 07:04:36;;;;;;;0.30;0.10;;;19.00;99.90;;;;;;4997120;28;20490;-83
2022/08/01 07:07:02;;;;;;;1.10;0.20;;;19.00;99.90;;;;;;5008372;28;20038;-84
2022/08/01 07:09:28;;;;;;;0.30;0.20;;;19.00;99.90;;;;;;4999765;28;20068;-83
2022/08/01 07:11:54;;;;;;;0.40;0.20;;;18.90;99.90;;;;;;4997969;28;20025;-84
2022/08/01 07:14:20;;;;;;;0.60;0.20;;;18.80;99.90;;;;;;5002884;28;20026;-84
2022/08/01 07:16:46;;;;;;;0.43;0.10;;;18.70;99.90;;;;;;4995376;28;20037;-84
2022/08/01 07:19:12;;;;;;;0.65;0.20;;;18.80;99.90;;;;;;4987049;28;20022;-84
2022/08/01 07:21:38;;;;;;;0.55;0.20;;;18.70;99.90;;;;;;5009473;28;20141;-83
2022/08/01 07:24:06;;;;;;;0.90;0.20;;;18.80;99.90;;;;;;4998981;28;20026;-84
2022/08/01 07:26:32;;;;;;;0.30;0.20;;;18.70;99.90;;;;;;5012978;28;20074;-83
2022/08/01 07:28:58;;;;;;;0.60;0.20;;;18.80;99.90;;;;;;4993962;28;20077;-84
2022/08/01 07:31:23;;;;;;;1.10;0.20;;;18.80;99.90;;;;;;4999665;28;20033;-84
2022/08/01 07:33:50;;;;;;;0.60;0.30;;;18.80;99.90;;;;;;4993631;28;20025;-84
2022/08/01 07:36:16;;;;;;;0.52;0.30;;;18.80;99.90;;;;;;5003209;28;20025;-83
2022/08/01 07:38:42;;;;;;;1.10;0.40;;;18.90;99.90;;;;;;4996768;28;20030;-84
2022/08/01 07:41:08;;;;;;;0.88;0.20;;;18.90;99.90;;;;;;5012320;28;20045;-83
2022/08/01 07:43:35;;;;;;;0.85;0.30;;;18.90;99.90;;;;;;4990742;28;20034;-83
2022/08/01 07:46:02;;;;;;;0.73;0.20;;;18.90;99.90;;;;;;5012081;28;20026;-83
2022/08/01 07:48:28;;;;;;;0.68;0.22;;;19.10;99.90;;;;;;5012367;28;20083;-83
2022/08/01 07:50:54;;;;;;;0.77;0.30;;;19.40;99.90;;;;;;4992965;28;20041;-84
2022/08/01 07:53:20;;;;;;;1.23;0.20;;;19.50;99.90;;;;;;5011590;28;20026;-84
2022/08/01 07:55:45;;;;;;;0.70;0.20;;;19.60;99.90;;;;;;5012185;28;20030;-84
2022/08/01 07:58:11;;;;;;;2.42;0.20;;;19.70;99.90;;;;;;5012231;28;20029;-85
2022/08/01 08:00:37;;;;;;;1.05;0.22;;;19.80;99.90;;;;;;5012238;28;20036;-85
2022/08/01 08:03:03;;;;;;;0.50;0.20;;;19.80;99.90;;;;;;5011840;28;20026;-85
2022/08/01 08:05:29;;;;;;;1.15;0.20;;;19.80;99.90;;;;;;5003708;28;20026;-83
2022/08/01 08:07:55;;;;;;;0.93;0.30;;;19.80;99.90;;;;;;5011094;28;20050;-82
2022/08/01 08:10:21;;;;;;;1.27;0.40;;;19.50;99.90;;;;;;5011855;28;20029;-84
2022/08/01 08:12:48;;;;;;;0.80;0.28;;;19.50;99.90;;;;;;4985028;28;20025;-85
2022/08/01 08:15:13;;;;;;;1.25;0.20;;;19.40;99.90;;;;;;4990157;28;20026;-83
2022/08/01 08:17:39;;;;;;;1.55;0.30;;;19.20;99.90;;;;;;4978372;28;20382;-84
2022/08/01 08:20:06;;;;;;;0.65;0.30;;;19.20;99.90;;;;;;5000263;28;20084;-85
2022/08/01 08:22:32;;;;;;;1.95;0.30;;;19.10;99.90;;;;;;5003830;28;20383;-85
2022/08/01 08:24:59;;;;;;;1.23;0.30;;;19.20;99.90;;;;;;5001414;28;20079;-86
2022/08/01 08:27:24;;;;;;;2.10;0.88;;;19.10;99.90;;;;;;4971993;28;20245;-86
2022/08/01 08:29:50;;;;;;;1.67;0.40;;;19.10;99.90;;;;;;5009958;28;20368;-84
2022/08/01 08:32:15;;;;;;;2.08;0.20;;;19.00;99.90;;;;;;5011403;28;20026;-85
2022/08/01 08:34:41;;;;;;;1.30;0.30;;;19.00;99.90;;;;;;5011739;28;20057;-84
2022/08/01 08:37:07;;;;;;;1.48;0.30;;;19.10;99.90;;;;;;4977162;28;20045;-84
2022/08/01 08:39:33;;;;;;;1.75;0.30;;;19.30;99.90;;;;;;4990834;28;20080;-84
2022/08/01 08:42:06;;;;;;;0.63;0.20;;;19.40;99.90;;;;;;4991711;28;20087;-84
2022/08/01 08:44:32;;;;;;;1.42;0.20;;;19.60;99.90;;;;;;5010536;28;20044;-84
2022/08/01 08:47:00;;;;;;;1.70;0.20;;;19.70;99.90;;;;;;5000512;28;20034;-84
2022/08/01 08:49:28;;;;;;;0.88;0.20;;;19.90;99.90;;;;;;5011025;28;20482;-84
2022/08/01 08:51:59;;;;;;;1.40;0.20;;;20.00;99.90;;;;;;4989213;28;20037;-84
2022/08/01 08:54:26;;;;;;;1.33;0.20;;;20.20;99.90;;;;;;5000666;28;20038;-84
2022/08/01 08:56:53;;;;;;;1.00;0.20;;;20.20;99.90;;;;;;4999246;28;20044;-84
2022/08/01 08:59:20;;;;;;;1.30;0.20;;;20.10;99.90;;;;;;5010678;28;20030;-86
2022/08/01 09:01:48;;;;;;;0.70;0.25;;;20.40;99.90;;;;;;5000686;28;20049;-84
2022/08/01 09:04:14;;;;;;;1.35;0.30;;;20.40;99.90;;;;;;4995857;28;20026;-84
2022/08/01 09:06:40;;;;;;;0.52;0.20;;;20.10;99.90;;;;;;5002787;28;20033;-87
2022/08/01 09:09:07;;;;;;;1.73;0.30;;;20.20;99.90;;;;;;5010088;28;20042;-84
2022/08/01 09:11:33;;;;;;;0.98;0.20;;;20.30;99.90;;;;;;4986214;28;20065;-85
2022/08/01 09:14:07;;;;;;;0.57;0.20;;;20.40;99.90;;;;;;4995807;28;20105;-85
2022/08/01 09:16:34;;;;;;;1.38;0.30;;;20.60;99.90;;;;;;5004376;28;20087;-85
2022/08/01 09:19:20;;;;;;;1.13;0.20;;;20.60;99.90;;;;;;5010027;28;20041;-84
2022/08/01 09:22:00;;;;;;;1.00;0.30;;;20.30;99.90;;;;;;4983832;28;20466;-85
2022/08/01 09:24:28;;;;;;;1.35;0.40;;;20.00;99.90;;;;;;4987999;28;20034;-84
2022/08/01 09:26:54;;;;;;;1.60;0.30;;;19.90;99.90;;;;;;4983869;28;20482;-83
2022/08/01 09:29:22;;;;;;;1.02;0.30;;;19.90;99.90;;;;;;5009448;28;20033;-84
2022/08/01 09:31:49;;;;;;;2.50;0.40;;;20.00;99.90;;;;;;5007027;28;20085;-83
2022/08/01 09:34:16;;;;;;;1.02;0.30;;;19.80;99.90;;;;;;4986876;28;20056;-84
2022/08/01 09:36:56;;;;;;;3.53;0.47;;;19.90;99.90;;;;;;4999868;28;20117;-85
2022/08/01 09:39:28;;;;;;;1.58;0.40;;;19.80;99.90;;;;;;5011806;28;20387;-84
2022/08/01 09:41:56;;;;;;;1.60;0.40;;;19.60;99.90;;;;;;5010154;28;20382;-84
2022/08/01 09:44:42;;;;;;;2.05;0.30;;;19.60;99.90;;;;;;5008732;28;20018;-90
2022/08/01 09:47:08;;;;;;;1.35;0.40;;;19.80;99.90;;;;;;4977931;28;20050;-85
2022/08/01 09:49:36;;;;;;;2.90;0.40;;;19.60;99.90;;;;;;4990729;28;20030;-86
2022/08/01 09:52:14;;;;;;;2.25;0.40;;;19.70;99.90;;;;;;5010137;28;20114;-87
2022/08/01 09:54:40;;;;;;;1.42;0.43;;;19.70;99.90;;;;;;5012021;28;20030;-84
2022/08/01 09:57:13;;;;;;;1.90;0.50;;;19.90;99.90;;;;;;5007759;28;20026;-84
2022/08/01 09:59:42;;;;;;;2.58;0.70;;;19.80;99.90;;;;;;4972498;28;20034;-87
2022/08/01 10:02:15;;;;;;;2.50;0.40;;;19.80;99.90;;;;;;4998948;28;20125;-84
2022/08/01 10:04:49;;;;;;;1.70;0.60;;;20.30;99.90;;;;;;4989027;28;20060;-85
2022/08/01 10:07:15;;;;;;;2.55;0.50;;;20.10;99.90;;;;;;5007581;28;20061;-84
2022/08/01 10:09:42;;;;;;;3.13;0.60;;;19.80;99.90;;;;;;4975937;28;20478;-88
2022/08/01 10:12:09;;;;;;;1.52;0.50;;;19.60;99.90;;;;;;4988336;28;20026;-85
2022/08/01 10:14:37;;;;;;;1.65;0.70;;;19.50;99.90;;;;;;4999556;28;20398;-84
2022/08/01 10:17:06;;;;;;;2.55;0.60;;;19.30;99.90;;;;;;5008971;28;20133;-87
2022/08/01 10:19:34;;;;;;;2.40;0.50;;;19.10;99.90;;;;;;5002831;28;20443;-86
2022/08/01 10:22:01;;;;;;;1.50;0.50;;;19.40;99.90;;;;;;5008518;28;20036;-85
2022/08/01 10:24:29;;;;;;;1.23;0.47;;;19.20;99.90;;;;;;5009855;28;20520;-84
2022/08/01 10:27:06;;;;;;;2.42;0.60;;;19.40;99.90;;;;;;5009002;28;20037;-84
2022/08/01 10:30:03;;;;;;;1.77;0.60;;;19.50;99.90;;;;;;4985850;28;20106;-85
2022/08/01 10:32:32;;;;;;;2.20;0.60;;;19.50;99.90;;;;;;4969651;28;20112;-84
2022/08/01 10:34:58;;;;;;;;;;;19.50;99.90;;;;;;5009349;28;20076;-84
2022/08/01 10:37:24;;;;;;;3.38;0.60;;;19.60;99.90;;;;;;4980817;28;19909;-84
2022/08/01 10:39:54;;;;;;;1.70;0.70;;;19.80;99.90;;;;;;4980039;28;20052;-87
2022/08/01 10:42:20;;;;;;;1.70;0.63;;;19.80;99.90;;;;;;5009489;28;20478;-84
2022/08/01 10:44:47;;;;;;;1.77;0.60;;;19.70;99.90;;;;;;5009611;28;20486;-84
2022/08/01 10:47:28;;;;;;;2.08;0.50;;;19.80;99.90;;;;;;5008428;28;20045;-85
2022/08/01 10:50:03;;;;;;;1.75;0.60;;;19.80;99.90;;;;;;4998346;28;20057;-86
2022/08/01 10:52:29;;;;;;;3.88;0.80;;;20.00;99.90;;;;;;4997334;28;20026;-85
2022/08/01 10:55:09;;;;;;;2.45;0.70;;;19.80;99.90;;;;;;5009245;28;20026;-86
2022/08/01 10:57:47;;;;;;;2.28;0.70;;;19.70;99.90;;;;;;5013259;28;20105;-85
2022/08/01 11:00:21;;;;;;;1.38;0.40;;;19.80;99.90;;;;;;5012459;28;20032;-84
2022/08/01 11:03:02;;;;;;;3.72;0.60;;;19.80;99.90;;;;;;5012819;28;20034;-85
2022/08/01 11:05:31;;;;;;;3.42;0.50;;;19.80;99.90;;;;;;4976118;28;20034;-85
2022/08/01 11:08:01;;;;;;;2.03;0.52;;;19.90;99.90;;;;;;5015452;28;20045;-84
2022/08/01 11:10:40;;;;;;;;;;;20.00;99.90;;;;;;4992510;28;20049;-85
2022/08/01 11:13:11;;;;;;;1.58;0.40;;;20.00;99.90;;;;;;5013128;28;19917;-85
2022/08/01 11:15:37;;;;;;;2.10;0.30;;;20.20;99.90;;;;;;4993066;28;20034;-85
2022/08/01 11:18:26;;;;;;;1.63;0.40;;;20.50;99.90;;;;;;5011800;28;20478;-85
2022/08/01 11:20:57;;;;;;;3.37;0.30;;;20.30;99.90;;;;;;4987557;28;20066;-85
2022/08/01 11:23:24;;;;;;;4.80;0.50;;;20.20;99.90;;;;;;4975037;28;20436;-85
2022/08/01 11:25:49;;;;;;;2.38;0.50;;;19.90;99.90;;;;;;4989703;28;20084;-85
2022/08/01 11:28:17;;;;;;;1.35;0.43;;;20.00;99.90;;;;;;5001427;28;20113;-86
2022/08/01 11:30:48;;;;;;;2.67;0.40;;;20.00;99.90;;;;;;5012828;28;20383;-84
2022/08/01 11:33:16;;;;;;;1.35;0.40;;;20.00;99.90;;;;;;4989884;28;20065;-84
2022/08/01 11:36:09;;;;;;;1.30;0.50;;;20.10;99.90;;;;;;5001364;28;20033;-84
2022/08/01 11:38:36;;;;;;;2.08;0.60;;;20.00;99.90;;;;;;5012444;28;20141;-85
2022/08/01 11:41:16;;;;;;;3.30;0.80;;;19.90;99.90;;;;;;5012348;28;20030;-83
2022/08/01 11:43:55;;;;;;;4.38;0.70;;;19.90;99.90;;;;;;4991177;28;20053;-86
2022/08/01 11:46:59;;;;;;;2.00;0.50;;;19.90;99.90;;;;;;4999782;28;20041;-83
2022/08/01 11:49:40;;;;;;;2.40;0.65;;;19.60;99.90;;;;;;4991614;28;20022;-84
2022/08/01 11:52:06;;;;;;;4.70;0.88;;;19.60;99.90;;;;;;5011592;28;20038;-83
2022/08/01 11:54:35;;;;;;;3.17;0.50;;;19.70;99.90;;;;;;5012177;28;20025;-83
2022/08/01 11:57:06;;;;;;;2.78;0.50;;;19.90;99.90;;;;;;4983028;28;20038;-88
2022/08/01 11:59:45;;;;;;;2.88;0.60;;;20.10;99.90;;;;;;5011311;28;20108;-84
2022/08/01 12:02:20;;;;;;;3.92;0.60;;;20.50;99.90;;;;;;4988889;28;20030;-84
2022/08/01 12:04:51;;;;;;;1.98;0.40;;;20.50;99.90;;;;;;4997669;28;20467;-84
2022/08/01 12:07:18;;;;;;;2.83;0.55;;;20.80;99.90;;;;;;5009668;28;20037;-84
2022/08/01 12:09:46;;;;;;;2.28;0.50;;;21.10;99.90;;;;;;5011624;28;20037;-84
2022/08/01 12:12:16;;;;;;;0.85;0.30;;;21.30;99.90;;;;;;5011464;28;20157;-84
2022/08/01 12:14:43;;;;;;;1.90;0.40;;;21.50;99.90;;;;;;4989129;28;20106;-92
2022/08/01 12:17:09;;;;;;;1.38;0.40;;;21.50;99.90;;;;;;5000652;28;20180;-85
2022/08/01 12:19:36;;;;;;;1.83;0.50;;;21.70;99.90;;;;;;5011876;28;20108;-84
2022/08/01 12:22:14;;;;;;;4.15;0.57;;;21.50;99.90;;;;;;4986665;28;20431;-86
2022/08/01 12:24:42;;;;;;;3.15;0.50;;;21.00;99.90;;;;;;5013047;28;20037;-84
2022/08/01 12:27:09;;;;;;;3.60;0.45;;;21.10;99.90;;;;;;4989479;28;20942;-83
2022/08/01 12:29:43;;;;;;;1.60;0.30;;;21.00;99.90;;;;;;4995409;28;20285;-84
2022/08/01 12:32:35;;;;;;;2.33;0.50;;;20.90;99.90;;;;;;4999954;28;20179;-84
2022/08/01 12:35:09;;;;;;;2.85;0.30;;;21.10;99.90;;;;;;5007549;28;20065;-83
2022/08/01 12:37:40;;;;;;;3.65;0.40;;;21.30;99.90;;;;;;4984276;28;20029;-84
2022/08/01 12:40:16;;;;;;;2.90;0.30;;;21.40;99.90;;;;;;5010805;28;20429;-83
2022/08/01 12:42:45;;;;;;;2.38;0.40;;;21.70;99.90;;;;;;5008510;28;20112;-83
2022/08/01 12:45:14;;;;;;;2.22;0.30;;;22.00;99.90;;;;;;4988343;28;20022;-85
2022/08/01 12:47:40;;;;;;;2.00;0.30;;;22.40;99.90;;;;;;5010863;28;20128;-84
2022/08/01 12:50:10;;;;;;;1.75;0.20;;;22.60;99.90;;;;;;5007458;28;20025;-83
2022/08/01 12:52:37;;;;;;;2.25;0.40;;;22.20;99.90;;;;;;5010824;28;20025;-84
2022/08/01 12:55:10;;;;;;;1.63;0.30;;;22.20;99.90;;;;;;5000180;28;20084;-88